Quetta Weather



Quetta's Current Weather

Temprature 33.28o broken clouds

broken clouds

Rain: 0 %

Min Temprature33.28o
Max Temprature33.28o
Humidity17
Wind Speed0.68 m/h
Sun Rise05:45:34
Sun Set19:31:02
Current Time: 24-Jul-2021 17:10:09
Lat/Lon: 30.199, 67.0097




Quetta's Geo Location



Quetta's Weather Forecast

Time Overall Temp Min Temp Max Temp Humidity Wind Speed Rain
24-Jul-2021 (Sat)
20:00:00 broken clouds 32.840 31.960 32.840 19 1.93 m/h 0 %
23:00:00 broken clouds 30.790 29.540 30.790 27 2.39 m/h 0 %
25-Jul-2021 (Sun)
02:00:00 clear sky 27.080 27.080 27.080 40 1.55 m/h 0 %
05:00:00 few clouds 26.040 26.040 26.040 41 1.55 m/h 0 %
08:00:00 few clouds 28.270 28.270 28.270 31 1.91 m/h 0 %
11:00:00 few clouds 31.990 31.990 31.990 19 1.68 m/h 0 %
14:00:00 clear sky 34.550 34.550 34.550 14 1.83 m/h 0 %
17:00:00 clear sky 35.450 35.450 35.450 14 1.95 m/h 0 %
20:00:00 clear sky 33.570 33.570 33.570 17 2.22 m/h 0 %
23:00:00 few clouds 30.570 30.570 30.570 26 2.21 m/h 0 %
26-Jul-2021 (Mon)
02:00:00 clear sky 28.250 28.250 28.250 36 1.8 m/h 0 %
05:00:00 clear sky 26.900 26.900 26.900 39 1.7 m/h 0 %
08:00:00 clear sky 29.560 29.560 29.560 30 0.87 m/h 0 %
11:00:00 few clouds 34.010 34.010 34.010 14 1.53 m/h 0 %
14:00:00 broken clouds 36.550 36.550 36.550 11 2.5 m/h 0 %
17:00:00 broken clouds 37.150 37.150 37.150 11 2.5 m/h 0 %
20:00:00 clear sky 34.340 34.340 34.340 14 3.05 m/h 0 %
23:00:00 few clouds 30.070 30.070 30.070 38 2.93 m/h 0 %
27-Jul-2021 (Tue)
02:00:00 overcast clouds 27.940 27.940 27.940 47 2.26 m/h 0 %
05:00:00 broken clouds 26.390 26.390 26.390 52 1.48 m/h 0 %
08:00:00 few clouds 30.280 30.280 30.280 27 1.71 m/h 0 %
11:00:00 scattered clouds 34.580 34.580 34.580 12 2.97 m/h 0 %
14:00:00 broken clouds 37.260 37.260 37.260 9 4.24 m/h 0 %
17:00:00 broken clouds 37.300 37.300 37.300 10 3.92 m/h 0 %
20:00:00 broken clouds 33.170 33.170 33.170 24 3.1 m/h 0 %
23:00:00 overcast clouds 28.260 28.260 28.260 53 3.85 m/h 0 %
28-Jul-2021 (Wed)
02:00:00 overcast clouds 26.290 26.290 26.290 64 2.89 m/h 0 %
05:00:00 broken clouds 25.340 25.340 25.340 66 1.83 m/h 0 %
08:00:00 overcast clouds 27.990 27.990 27.990 50 2.28 m/h 0 %
11:00:00 broken clouds 32.960 32.960 32.960 17 2.88 m/h 0 %
14:00:00 broken clouds 36.020 36.020 36.020 11 3.01 m/h 0 %
17:00:00 scattered clouds 35.860 35.860 35.860 13 3.06 m/h 0 %
20:00:00 scattered clouds 32.070 32.070 32.070 26 1.94 m/h 0 %
23:00:00 scattered clouds 27.840 27.840 27.840 55 2.85 m/h 0 %
29-Jul-2021 (Thu)
02:00:00 scattered clouds 26.300 26.300 26.300 62 2.19 m/h 0 %
05:00:00 broken clouds 24.670 24.670 24.670 70 1.95 m/h 0 %
08:00:00 overcast clouds 26.170 26.170 26.170 53 1.44 m/h 0 %
11:00:00 broken clouds 31.390 31.390 31.390 24 1.89 m/h 0 %
14:00:00 clear sky 34.550 34.550 34.550 22 2.78 m/h 0 %
17:00:00 clear sky 34.900 34.900 34.900 22 2.52 m/h 0 %

Famous Cities (60)